createdAt,value
2022-12-18T00:00:04.666Z,-7.41
2022-12-18T00:01:04.660Z,-7.39
2022-12-18T00:02:04.802Z,-7.33
2022-12-18T00:03:04.764Z,-7.30
2022-12-18T00:04:04.825Z,-7.29
2022-12-18T00:05:04.594Z,-7.24
2022-12-18T00:06:04.591Z,-7.23
2022-12-18T00:07:04.601Z,-7.26
2022-12-18T00:08:04.568Z,-7.24
2022-12-18T00:09:04.577Z,-7.27
2022-12-18T00:10:04.555Z,-7.29
2022-12-18T00:11:04.543Z,-7.27
2022-12-18T00:13:08.286Z,-7.31
2022-12-18T00:14:04.534Z,-7.34
2022-12-18T00:15:04.485Z,-7.31
2022-12-18T00:16:04.591Z,-7.29
2022-12-18T00:17:04.469Z,-7.30
2022-12-18T00:18:04.463Z,-7.33
2022-12-18T00:19:04.478Z,-7.34
2022-12-18T00:20:04.440Z,-7.37
2022-12-18T00:21:04.933Z,-7.33
2022-12-18T00:22:04.432Z,-7.34
2022-12-18T00:23:04.431Z,-7.34
2022-12-18T00:24:04.407Z,-7.34
2022-12-18T00:25:04.424Z,-7.34
2022-12-18T00:26:04.381Z,-7.38
2022-12-18T00:27:04.365Z,-7.37
2022-12-18T00:28:04.360Z,-7.31
2022-12-18T00:29:04.354Z,-7.30
2022-12-18T00:30:04.340Z,-7.29
2022-12-18T00:31:04.457Z,-7.24
2022-12-18T00:32:04.396Z,-7.26
2022-12-18T00:33:04.300Z,-7.26
2022-12-18T00:34:04.307Z,-7.26
2022-12-18T00:35:04.282Z,-7.24
2022-12-18T00:36:04.291Z,-7.23
2022-12-18T00:37:04.261Z,-7.29
2022-12-18T00:38:04.254Z,-7.24
2022-12-18T00:39:04.242Z,-7.16
2022-12-18T00:40:04.230Z,-7.20
2022-12-18T00:41:04.247Z,-7.21
2022-12-18T00:42:04.207Z,-7.19
2022-12-18T00:43:04.192Z,-7.19
2022-12-18T00:44:04.191Z,-7.15
2022-12-18T00:45:09.056Z,-7.19
2022-12-18T00:46:04.293Z,-7.13
2022-12-18T00:47:04.185Z,-7.16
2022-12-18T00:48:04.159Z,-7.12
2022-12-18T00:49:04.137Z,-7.08
2022-12-18T00:50:04.129Z,-7.08
2022-12-18T00:51:04.117Z,-7.00
2022-12-18T00:52:04.227Z,-6.99
2022-12-18T00:53:04.197Z,-6.99
2022-12-18T00:54:04.099Z,-7.00
2022-12-18T00:55:06.401Z,-7.00
2022-12-18T00:56:04.064Z,-7.05
2022-12-18T00:57:04.056Z,-7.10
2022-12-18T00:58:04.065Z,-7.06
2022-12-18T00:59:04.033Z,-7.02
2022-12-18T01:00:04.020Z,-7.08
2022-12-18T01:01:04.105Z,-7.09
2022-12-18T01:02:04.116Z,-7.08
2022-12-18T01:03:04.100Z,-7.09
2022-12-18T01:04:03.979Z,-7.10
2022-12-18T01:05:03.968Z,-7.13
2022-12-18T01:06:03.961Z,-7.20
2022-12-18T01:07:03.934Z,-7.20
2022-12-18T01:08:03.942Z,-7.20
2022-12-18T01:09:03.948Z,-7.19
2022-12-18T01:10:03.952Z,-7.03
2022-12-18T01:11:03.910Z,-7.02
2022-12-18T01:12:03.885Z,-7.02
2022-12-18T01:13:03.909Z,-7.10
2022-12-18T01:14:03.899Z,-7.16
2022-12-18T01:15:03.866Z,-7.19
2022-12-18T01:16:03.897Z,-7.12
2022-12-18T01:17:03.832Z,-7.05
2022-12-18T01:18:03.855Z,-7.12
2022-12-18T01:19:03.814Z,-7.02
2022-12-18T01:20:03.800Z,-7.02
2022-12-18T01:21:03.789Z,-7.08
2022-12-18T01:22:03.811Z,-7.13
2022-12-18T01:23:03.765Z,-7.12
2022-12-18T01:24:03.768Z,-7.08
2022-12-18T01:25:03.748Z,-7.00
2022-12-18T01:26:03.795Z,-7.02
2022-12-18T01:27:03.737Z,-7.03
2022-12-18T01:28:03.715Z,-7.02
2022-12-18T01:29:03.705Z,-7.03
2022-12-18T01:30:03.713Z,-7.08
2022-12-18T01:31:03.736Z,-7.05
2022-12-18T01:32:03.785Z,-7.02
2022-12-18T01:33:03.672Z,-6.99
2022-12-18T01:34:03.672Z,-7.02
2022-12-18T01:35:03.636Z,-6.97
2022-12-18T01:36:03.634Z,-6.90
2022-12-18T01:37:03.620Z,-6.87
2022-12-18T01:38:03.650Z,-6.84
2022-12-18T01:39:03.593Z,-6.82
2022-12-18T01:40:03.591Z,-6.88
2022-12-18T01:41:03.603Z,-6.88
2022-12-18T01:42:03.600Z,-6.82
2022-12-18T01:43:03.576Z,-6.82
2022-12-18T01:44:03.553Z,-6.84
2022-12-18T01:45:03.547Z,-6.81
2022-12-18T01:46:03.603Z,-6.81
2022-12-18T01:47:03.544Z,-6.84
2022-12-18T01:48:03.512Z,-6.85
2022-12-18T01:49:03.493Z,-6.87
2022-12-18T01:50:03.481Z,-6.90
2022-12-18T01:51:03.500Z,-6.90
2022-12-18T01:52:03.468Z,-6.87
2022-12-18T01:53:03.459Z,-6.90
2022-12-18T01:54:03.471Z,-6.90
2022-12-18T01:55:03.444Z,-6.82
2022-12-18T01:56:03.434Z,-6.69
2022-12-18T01:57:03.441Z,-6.66
2022-12-18T01:58:03.446Z,-6.61
2022-12-18T01:59:03.397Z,-6.61
2022-12-18T02:00:03.384Z,-6.66
2022-12-18T02:01:03.486Z,-6.69
2022-12-18T02:02:03.563Z,-6.63
2022-12-18T02:03:03.383Z,-6.51
2022-12-18T02:04:03.357Z,-6.52
2022-12-18T02:05:03.328Z,-6.54
2022-12-18T02:06:03.329Z,-6.59
2022-12-18T02:07:03.325Z,-6.66
2022-12-18T02:08:03.288Z,-6.64
2022-12-18T02:09:03.311Z,-6.67
2022-12-18T02:10:03.284Z,-6.63
2022-12-18T02:11:03.272Z,-6.67
2022-12-18T02:12:03.263Z,-6.63
2022-12-18T02:13:03.289Z,-6.64
2022-12-18T02:14:03.245Z,-6.70
2022-12-18T02:15:03.226Z,-6.76
2022-12-18T02:16:03.202Z,-6.73
2022-12-18T02:17:03.249Z,-6.73
2022-12-18T02:18:03.215Z,-6.69
2022-12-18T02:19:03.216Z,-6.66
2022-12-18T02:20:03.201Z,-6.64
2022-12-18T02:21:03.165Z,-6.63
2022-12-18T02:22:03.143Z,-6.54
2022-12-18T02:23:03.135Z,-6.48
2022-12-18T02:24:03.145Z,-6.47
2022-12-18T02:25:03.120Z,-6.47
2022-12-18T02:26:03.138Z,-6.44
2022-12-18T02:27:03.151Z,-6.47
2022-12-18T02:28:03.111Z,-6.48
2022-12-18T02:29:03.073Z,-6.48
2022-12-18T02:30:03.053Z,-6.44
2022-12-18T02:31:03.136Z,-6.39
2022-12-18T02:32:03.039Z,-6.36
2022-12-18T02:33:03.070Z,-6.36
2022-12-18T02:34:03.029Z,-6.37
2022-12-18T02:35:03.030Z,-6.37
2022-12-18T02:36:03.001Z,-6.39
2022-12-18T02:37:02.992Z,-6.39
2022-12-18T02:38:03.005Z,-6.44
2022-12-18T02:39:02.971Z,-6.47
2022-12-18T02:40:02.961Z,-6.51
2022-12-18T02:41:02.974Z,-6.58
2022-12-18T02:42:02.945Z,-6.61
2022-12-18T02:43:02.947Z,-6.61
2022-12-18T02:44:02.931Z,-6.63
2022-12-18T02:45:02.908Z,-6.67
2022-12-18T02:46:02.988Z,-6.66
2022-12-18T02:47:02.890Z,-6.66
2022-12-18T02:48:02.911Z,-6.64
2022-12-18T02:49:02.886Z,-6.63
2022-12-18T02:50:02.890Z,-6.67
2022-12-18T02:51:02.851Z,-6.69
2022-12-18T02:52:02.836Z,-6.69
2022-12-18T02:53:02.841Z,-6.70
2022-12-18T02:54:02.811Z,-6.69
2022-12-18T02:55:02.800Z,-6.64
2022-12-18T02:56:02.791Z,-6.55
2022-12-18T02:57:02.813Z,-6.54
2022-12-18T02:58:02.765Z,-6.58
2022-12-18T02:59:02.780Z,-6.51
2022-12-18T03:00:02.761Z,-6.52
2022-12-18T03:01:02.832Z,-6.50
2022-12-18T03:02:02.939Z,-6.44
2022-12-18T03:03:02.979Z,-6.34
2022-12-18T03:04:02.713Z,-6.37
2022-12-18T03:05:02.690Z,-6.45
2022-12-18T03:06:02.703Z,-6.47
2022-12-18T03:07:02.731Z,-6.50
2022-12-18T03:08:02.656Z,-6.50
2022-12-18T03:09:02.647Z,-6.51
2022-12-18T03:10:03.452Z,-6.51
2022-12-18T03:11:02.654Z,-6.52
2022-12-18T03:12:02.623Z,-6.51
2022-12-18T03:13:02.641Z,-6.52
2022-12-18T03:14:02.611Z,-6.50
2022-12-18T03:15:02.586Z,-6.54
2022-12-18T03:16:02.586Z,-6.52
2022-12-18T03:17:02.669Z,-6.58
2022-12-18T03:18:02.557Z,-6.58
2022-12-18T03:19:02.579Z,-6.61
2022-12-18T03:20:02.542Z,-6.55
2022-12-18T03:21:02.559Z,-6.48
2022-12-18T03:22:02.517Z,-6.51
2022-12-18T03:23:02.502Z,-6.50
2022-12-18T03:24:02.504Z,-6.51
2022-12-18T03:25:02.483Z,-6.52
2022-12-18T03:26:07.340Z,-6.52
2022-12-18T03:27:02.493Z,-6.52
2022-12-18T03:28:02.468Z,-6.45
2022-12-18T03:29:02.467Z,-6.42
2022-12-18T03:30:02.423Z,-6.45
2022-12-18T03:31:02.470Z,-6.48
2022-12-18T03:32:02.419Z,-6.36
2022-12-18T03:33:02.411Z,-6.26
2022-12-18T03:34:02.399Z,-6.16
2022-12-18T03:35:02.382Z,-6.05
2022-12-18T03:36:02.364Z,-6.06
2022-12-18T03:37:02.397Z,-6.09
2022-12-18T03:38:02.382Z,-6.09
2022-12-18T03:39:02.337Z,-6.13
2022-12-18T03:40:02.321Z,-6.11
2022-12-18T03:41:02.323Z,-6.13
2022-12-18T03:42:02.378Z,-6.16
2022-12-18T03:43:02.290Z,-6.16
2022-12-18T03:44:02.300Z,-6.23
2022-12-18T03:45:02.299Z,-6.23
2022-12-18T03:46:02.300Z,-6.21
2022-12-18T03:47:02.253Z,-6.21
2022-12-18T03:48:02.248Z,-6.21
2022-12-18T03:49:02.228Z,-6.23
2022-12-18T03:50:02.225Z,-6.21
2022-12-18T03:51:02.224Z,-6.12
2022-12-18T03:52:02.192Z,-6.11
2022-12-18T03:53:02.200Z,-6.12
2022-12-18T03:54:02.180Z,-6.15
2022-12-18T03:55:02.167Z,-6.16
2022-12-18T03:56:02.191Z,-6.16
2022-12-18T03:57:02.142Z,-6.15
2022-12-18T03:58:02.148Z,-6.11
2022-12-18T03:59:02.125Z,-6.09
2022-12-18T04:00:02.108Z,-6.15
2022-12-18T04:01:02.118Z,-6.11
2022-12-18T04:02:02.290Z,-6.06
2022-12-18T04:03:02.084Z,-6.02
2022-12-18T04:04:02.155Z,-6.06
2022-12-18T04:05:02.074Z,-6.08
2022-12-18T04:06:02.047Z,-6.00
2022-12-18T04:07:02.062Z,-5.98
2022-12-18T04:08:02.028Z,-5.94
2022-12-18T04:09:02.024Z,-5.95
2022-12-18T04:10:02.008Z,-5.98
2022-12-18T04:11:01.996Z,-6.00
2022-12-18T04:12:02.015Z,-6.00
2022-12-18T04:13:01.986Z,-5.92
2022-12-18T04:14:05.967Z,-5.90
2022-12-18T04:15:01.963Z,-5.84
2022-12-18T04:16:01.976Z,-5.77
2022-12-18T04:17:01.944Z,-5.70
2022-12-18T04:18:01.913Z,-5.61
2022-12-18T04:19:01.910Z,-5.59
2022-12-18T04:20:01.932Z,-5.61
2022-12-18T04:21:01.896Z,-5.69
2022-12-18T04:22:01.903Z,-5.63
2022-12-18T04:23:01.868Z,-5.67
2022-12-18T04:24:01.866Z,-5.69
2022-12-18T04:25:01.848Z,-5.62
2022-12-18T04:26:01.825Z,-5.58
2022-12-18T04:27:01.821Z,-5.58
2022-12-18T04:28:01.811Z,-5.63
2022-12-18T04:29:01.811Z,-5.67
2022-12-18T04:30:01.811Z,-5.69
2022-12-18T04:31:01.875Z,-5.72
2022-12-18T04:32:01.766Z,-5.76
2022-12-18T04:33:01.776Z,-5.74
2022-12-18T04:34:01.744Z,-5.76
2022-12-18T04:35:01.735Z,-5.80
2022-12-18T04:36:01.789Z,-5.82
2022-12-18T04:37:01.737Z,-5.83
2022-12-18T04:38:01.719Z,-5.87
2022-12-18T04:39:01.705Z,-5.83
2022-12-18T04:40:01.693Z,-5.83
2022-12-18T04:41:01.678Z,-5.82
2022-12-18T04:42:01.691Z,-5.82
2022-12-18T04:43:01.733Z,-5.80
2022-12-18T04:44:01.643Z,-5.80
2022-12-18T04:45:01.656Z,-5.77
2022-12-18T04:46:01.633Z,-5.73
2022-12-18T04:47:01.635Z,-5.67
2022-12-18T04:48:01.620Z,-5.67
2022-12-18T04:49:01.585Z,-5.63
2022-12-18T04:50:01.581Z,-5.65
2022-12-18T04:51:01.622Z,-5.63
2022-12-18T04:52:01.559Z,-5.59
2022-12-18T04:53:01.544Z,-5.45
2022-12-18T04:54:01.602Z,-5.45
2022-12-18T04:55:01.525Z,-5.38
2022-12-18T04:56:01.500Z,-5.34
2022-12-18T04:57:01.527Z,-5.33
2022-12-18T04:58:01.494Z,-5.34
2022-12-18T04:59:01.463Z,-5.33
2022-12-18T05:00:01.471Z,-5.30
2022-12-18T05:01:01.457Z,-5.34
2022-12-18T05:02:01.567Z,-5.34
2022-12-18T05:03:01.506Z,-5.34
2022-12-18T05:04:01.459Z,-5.35
2022-12-18T05:05:01.409Z,-5.38
2022-12-18T05:06:01.410Z,-5.33
2022-12-18T05:07:01.391Z,-5.35
2022-12-18T05:08:01.395Z,-5.34
2022-12-18T05:09:01.377Z,-5.31
2022-12-18T05:10:01.388Z,-5.27
2022-12-18T05:11:01.355Z,-5.23
2022-12-18T05:12:01.338Z,-5.22
2022-12-18T05:13:01.563Z,-5.23
2022-12-18T05:14:01.347Z,-5.25
2022-12-18T05:15:01.309Z,-5.19
2022-12-18T05:16:01.395Z,-5.17
2022-12-18T05:17:01.556Z,-5.14
2022-12-18T05:18:01.281Z,-5.16
2022-12-18T05:19:01.268Z,-5.17
2022-12-18T05:20:01.273Z,-5.17
2022-12-18T05:21:01.256Z,-5.19
2022-12-18T05:22:01.237Z,-5.20
2022-12-18T05:23:01.221Z,-5.19
2022-12-18T05:24:01.201Z,-5.07
2022-12-18T05:25:01.208Z,-5.01
2022-12-18T05:26:01.238Z,-5.00
2022-12-18T05:27:01.190Z,-4.95
2022-12-18T05:28:01.168Z,-4.93
2022-12-18T05:29:01.165Z,-4.94
2022-12-18T05:30:01.177Z,-4.89
2022-12-18T05:31:01.211Z,-4.89
2022-12-18T05:32:01.146Z,-4.91
2022-12-18T05:33:01.122Z,-4.91
2022-12-18T05:34:01.089Z,-4.91
2022-12-18T05:35:01.094Z,-4.86
2022-12-18T05:36:01.103Z,-4.85
2022-12-18T05:37:01.096Z,-4.80
2022-12-18T05:38:01.068Z,-4.85
2022-12-18T05:39:01.079Z,-4.85
2022-12-18T05:40:01.097Z,-4.89
2022-12-18T05:41:01.031Z,-4.87
2022-12-18T05:42:01.033Z,-4.87
2022-12-18T05:43:01.021Z,-4.86
2022-12-18T05:44:01.005Z,-4.86
2022-12-18T05:45:00.996Z,-4.87
2022-12-18T05:46:00.974Z,-4.87
2022-12-18T05:47:01.087Z,-4.85
2022-12-18T05:48:00.984Z,-4.83
2022-12-18T05:49:00.952Z,-4.85
2022-12-18T05:50:00.932Z,-4.82
2022-12-18T05:51:00.928Z,-4.83
2022-12-18T05:52:00.918Z,-4.86
2022-12-18T05:53:00.936Z,-4.87
2022-12-18T05:54:00.884Z,-4.85
2022-12-18T05:55:00.872Z,-4.89
2022-12-18T05:56:00.880Z,-4.85
2022-12-18T05:57:00.859Z,-4.80
2022-12-18T05:58:00.857Z,-4.76
2022-12-18T05:59:00.859Z,-4.76
2022-12-18T06:00:00.855Z,-4.73
2022-12-18T06:01:00.819Z,-4.68
2022-12-18T06:02:00.986Z,-4.71
2022-12-18T06:03:00.908Z,-4.71
2022-12-18T06:04:00.855Z,-4.73
2022-12-18T06:05:00.803Z,-4.69
2022-12-18T06:06:00.766Z,-4.71
2022-12-18T06:07:00.751Z,-4.71
2022-12-18T06:08:00.738Z,-4.71
2022-12-18T06:09:00.743Z,-4.75
2022-12-18T06:10:00.736Z,-4.75
2022-12-18T06:11:00.711Z,-4.77
2022-12-18T06:12:00.704Z,-4.76
2022-12-18T06:13:00.688Z,-4.76
2022-12-18T06:14:00.742Z,-4.79
2022-12-18T06:15:00.681Z,-4.79
2022-12-18T06:16:00.702Z,-4.76
2022-12-18T06:17:00.660Z,-4.73
2022-12-18T06:18:00.631Z,-4.73
2022-12-18T06:19:00.626Z,-4.73
2022-12-18T06:20:00.631Z,-4.71
2022-12-18T06:21:00.607Z,-4.69
2022-12-18T06:22:00.600Z,-4.68
2022-12-18T06:23:00.575Z,-4.73
2022-12-18T06:24:00.592Z,-4.68
2022-12-18T06:25:00.582Z,-4.66
2022-12-18T06:26:00.541Z,-4.64
2022-12-18T06:27:00.532Z,-4.57
2022-12-18T06:28:00.539Z,-4.55
2022-12-18T06:29:00.519Z,-4.55
2022-12-18T06:30:00.546Z,-4.50
2022-12-18T06:31:00.501Z,-4.50
2022-12-18T06:32:00.595Z,-4.48
2022-12-18T06:33:00.464Z,-4.50
2022-12-18T06:34:00.465Z,-4.50
2022-12-18T06:35:00.509Z,-4.48
2022-12-18T06:36:01.331Z,-4.44
2022-12-18T06:37:00.438Z,-4.41
2022-12-18T06:38:00.420Z,-4.37
2022-12-18T06:39:00.403Z,-4.36
2022-12-18T06:40:00.406Z,-4.36
2022-12-18T06:41:00.417Z,-4.30
2022-12-18T06:42:00.386Z,-4.30
2022-12-18T06:43:00.369Z,-4.28
2022-12-18T06:44:00.429Z,-4.29
2022-12-18T06:45:00.361Z,-4.30
2022-12-18T06:46:00.444Z,-4.33
2022-12-18T06:47:00.328Z,-4.32
2022-12-18T06:48:00.313Z,-4.30
2022-12-18T06:49:00.321Z,-4.29
2022-12-18T06:50:00.298Z,-4.25
2022-12-18T06:51:00.305Z,-4.20
2022-12-18T06:52:00.411Z,-4.12
2022-12-18T06:53:00.258Z,-4.08
2022-12-18T06:54:00.254Z,-4.14
2022-12-18T06:55:00.272Z,-4.11
2022-12-18T06:56:02.854Z,-4.14
2022-12-18T06:57:00.236Z,-4.15
2022-12-18T06:58:00.230Z,-4.22
2022-12-18T06:59:00.192Z,-4.23
2022-12-18T07:00:00.204Z,-4.22
2022-12-18T07:01:00.238Z,-4.15
2022-12-18T07:02:00.370Z,-4.15
2022-12-18T07:03:00.244Z,-4.18
2022-12-18T07:04:00.147Z,-4.19
2022-12-18T07:05:00.153Z,-4.15
2022-12-18T07:06:00.134Z,-4.18
2022-12-18T07:07:00.110Z,-4.19
2022-12-18T07:08:00.123Z,-3.99
2022-12-18T07:09:00.106Z,-3.99
2022-12-18T07:10:00.076Z,-4.04
2022-12-18T07:11:00.096Z,-4.07
2022-12-18T07:12:00.094Z,-4.12
2022-12-18T07:13:00.053Z,-4.12
2022-12-18T07:14:00.056Z,-4.12
2022-12-18T07:15:00.023Z,-4.11
2022-12-18T07:16:00.070Z,-4.12
2022-12-18T07:17:00.081Z,-4.09
2022-12-18T07:17:59.988Z,-3.87
2022-12-18T07:19:00.012Z,-3.81
2022-12-18T07:19:59.973Z,-3.86
2022-12-18T07:20:59.955Z,-3.91
2022-12-18T07:21:59.980Z,-3.96
2022-12-18T07:22:59.925Z,-3.99
2022-12-18T07:23:59.988Z,-4.01
2022-12-18T07:24:59.926Z,-4.05
2022-12-18T07:25:59.900Z,-4.08
2022-12-18T07:26:59.896Z,-4.12
2022-12-18T07:27:59.897Z,-4.15
2022-12-18T07:28:59.889Z,-4.15
2022-12-18T07:29:59.889Z,-4.20
2022-12-18T07:30:59.874Z,-4.20
2022-12-18T07:31:59.905Z,-4.09
2022-12-18T07:32:59.866Z,-4.09
2022-12-18T07:33:59.827Z,-4.05
2022-12-18T07:34:59.824Z,-4.05
2022-12-18T07:35:59.822Z,-4.02
2022-12-18T07:36:59.774Z,-4.01
2022-12-18T07:37:59.859Z,-4.02
2022-12-18T07:38:59.756Z,-4.09
2022-12-18T07:39:59.754Z,-4.07
2022-12-18T07:40:59.765Z,-4.07
2022-12-18T07:41:59.741Z,-4.01
2022-12-18T07:42:59.736Z,-4.04
2022-12-18T07:43:59.713Z,-4.02
2022-12-18T07:44:59.704Z,-3.93
2022-12-18T07:45:59.740Z,-3.94
2022-12-18T07:46:59.684Z,-3.94
2022-12-18T07:47:59.672Z,-3.94
2022-12-18T07:48:59.658Z,-3.90
2022-12-18T07:49:59.652Z,-3.91
2022-12-18T07:50:59.701Z,-3.94
2022-12-18T07:51:59.619Z,-3.98
2022-12-18T07:52:59.614Z,-3.96
2022-12-18T07:53:59.615Z,-3.94
2022-12-18T07:54:59.599Z,-3.89
2022-12-18T07:56:25.903Z,-3.89
2022-12-18T07:56:59.589Z,-3.90
2022-12-18T07:58:01.302Z,-3.93
2022-12-18T07:58:59.560Z,-3.94
2022-12-18T07:59:59.552Z,-3.98
2022-12-18T08:00:59.584Z,-3.96
2022-12-18T08:01:59.722Z,-3.93
2022-12-18T08:02:59.675Z,-3.96
2022-12-18T08:03:59.507Z,-3.94
2022-12-18T08:04:59.490Z,-3.83
2022-12-18T08:05:59.475Z,-3.87
2022-12-18T08:06:59.514Z,-3.91
2022-12-18T08:07:59.462Z,-3.98
2022-12-18T08:08:59.474Z,-3.99
2022-12-18T08:09:59.435Z,-4.02
2022-12-18T08:10:59.420Z,-4.07
2022-12-18T08:11:59.423Z,-4.07
2022-12-18T08:13:04.606Z,-4.05
2022-12-18T08:13:59.413Z,-4.05
2022-12-18T08:14:59.392Z,-4.07
2022-12-18T08:15:59.369Z,-4.07
2022-12-18T08:16:59.458Z,-4.05
2022-12-18T08:17:59.346Z,-4.04
2022-12-18T08:18:59.367Z,-4.01
2022-12-18T08:19:59.344Z,-3.98
2022-12-18T08:20:59.317Z,-3.91
2022-12-18T08:21:59.308Z,-3.93
2022-12-18T08:22:59.307Z,-3.93
2022-12-18T08:23:59.289Z,-3.86
2022-12-18T08:24:59.295Z,-3.78
2022-12-18T08:25:59.277Z,-3.78
2022-12-18T08:27:27.763Z,-3.86
2022-12-18T08:27:59.248Z,-3.83
2022-12-18T08:28:59.251Z,-3.84
2022-12-18T08:29:59.244Z,-3.83
2022-12-18T08:30:59.284Z,-3.83
2022-12-18T08:31:59.246Z,-3.84
2022-12-18T08:32:59.184Z,-3.81
2022-12-18T08:33:59.170Z,-3.83
2022-12-18T08:34:59.192Z,-3.80
2022-12-18T08:35:59.161Z,-3.81
2022-12-18T08:36:59.160Z,-3.78
2022-12-18T08:37:59.145Z,-3.76
2022-12-18T08:38:59.121Z,-3.76
2022-12-18T08:39:59.131Z,-3.80
2022-12-18T08:40:59.114Z,-3.81
2022-12-18T08:41:59.120Z,-3.84
2022-12-18T08:42:59.106Z,-3.81
2022-12-18T08:43:59.078Z,-3.80
2022-12-18T08:44:59.107Z,-3.81
2022-12-18T08:45:59.148Z,-3.81
2022-12-18T08:46:59.065Z,-3.83
2022-12-18T08:47:59.028Z,-3.83
2022-12-18T08:48:59.012Z,-3.81
2022-12-18T08:49:59.075Z,-3.81
2022-12-18T08:50:59.070Z,-3.76
2022-12-18T08:51:58.994Z,-3.70
2022-12-18T08:52:58.971Z,-3.65
2022-12-18T08:53:58.961Z,-3.61
2022-12-18T08:54:58.963Z,-3.57
2022-12-18T08:55:58.941Z,-3.47
2022-12-18T08:56:58.956Z,-3.44
2022-12-18T08:57:58.923Z,-3.43
2022-12-18T08:58:58.916Z,-3.43
2022-12-18T08:59:58.898Z,-3.46
2022-12-18T09:00:58.964Z,-3.44
2022-12-18T09:01:59.023Z,-3.44
2022-12-18T09:02:59.020Z,-3.39
2022-12-18T09:03:58.879Z,-3.39
2022-12-18T09:04:58.855Z,-3.41
2022-12-18T09:05:58.841Z,-3.43
2022-12-18T09:06:58.874Z,-3.38
2022-12-18T09:07:58.806Z,-3.35
2022-12-18T09:08:58.816Z,-3.35
2022-12-18T09:09:58.783Z,-3.38
2022-12-18T09:10:58.781Z,-3.39
2022-12-18T09:11:58.769Z,-3.43
2022-12-18T09:12:58.782Z,-3.44
2022-12-18T09:13:58.749Z,-3.39
2022-12-18T09:14:58.756Z,-3.38
2022-12-18T09:15:58.727Z,-3.35
2022-12-18T09:16:58.785Z,-3.36
2022-12-18T09:17:58.720Z,-3.47
2022-12-18T09:18:58.713Z,-3.49
2022-12-18T09:19:58.719Z,-3.44
2022-12-18T09:20:58.690Z,-3.47
2022-12-18T09:21:58.649Z,-3.50
2022-12-18T09:22:58.677Z,-3.51
2022-12-18T09:23:58.642Z,-3.61
2022-12-18T09:24:58.648Z,-3.70
2022-12-18T09:25:58.645Z,-3.75
2022-12-18T09:26:58.614Z,-3.81
2022-12-18T09:27:58.586Z,-3.87
2022-12-18T09:28:58.597Z,-3.83
2022-12-18T09:29:58.592Z,-3.87
2022-12-18T09:30:58.656Z,-3.87
2022-12-18T09:31:58.587Z,-3.86
2022-12-18T09:32:58.568Z,-3.84
2022-12-18T09:33:58.523Z,-3.87
2022-12-18T09:34:58.527Z,-3.89
2022-12-18T09:35:58.531Z,-3.93
2022-12-18T09:36:58.496Z,-3.96
2022-12-18T09:37:58.492Z,-3.99
2022-12-18T09:38:58.807Z,-3.98
2022-12-18T09:39:58.505Z,-3.90
2022-12-18T09:40:58.456Z,-3.87
2022-12-18T09:41:58.470Z,-3.86
2022-12-18T09:42:58.430Z,-3.83
2022-12-18T09:43:58.423Z,-3.81
2022-12-18T09:44:58.513Z,-3.80
2022-12-18T09:45:58.452Z,-3.81
2022-12-18T09:46:58.393Z,-3.78
2022-12-18T09:47:58.387Z,-3.76
2022-12-18T09:48:58.402Z,-3.76
2022-12-18T09:49:58.371Z,-3.72
2022-12-18T09:50:58.370Z,-3.71
2022-12-18T09:51:58.330Z,-3.67
2022-12-18T09:52:58.325Z,-3.61
2022-12-18T09:53:58.372Z,-3.60
2022-12-18T09:54:58.313Z,-3.54
2022-12-18T09:55:58.302Z,-3.53
2022-12-18T09:56:58.274Z,-3.50
2022-12-18T09:57:58.288Z,-3.50
2022-12-18T09:58:58.268Z,-3.49
2022-12-18T09:59:58.261Z,-3.43
2022-12-18T10:00:58.246Z,-3.36
2022-12-18T10:01:58.518Z,-3.31
2022-12-18T10:02:58.334Z,-3.28
2022-12-18T10:03:58.276Z,-3.26
2022-12-18T10:04:58.215Z,-3.31
2022-12-18T10:05:58.189Z,-3.31
2022-12-18T10:06:58.186Z,-3.28
2022-12-18T10:07:58.195Z,-3.25
2022-12-18T10:08:58.166Z,-3.22
2022-12-18T10:09:58.157Z,-3.25
2022-12-18T10:10:58.156Z,-3.31
2022-12-18T10:11:58.131Z,-3.28
2022-12-18T10:13:04.107Z,-3.25
2022-12-18T10:13:58.112Z,-3.22
2022-12-18T10:14:58.139Z,-3.20
2022-12-18T10:15:58.130Z,-3.18
2022-12-18T10:16:58.069Z,-3.17
2022-12-18T10:17:58.061Z,-3.11
2022-12-18T10:18:58.047Z,-3.10
2022-12-18T10:19:58.304Z,-3.10
2022-12-18T10:20:58.038Z,-3.14
2022-12-18T10:21:58.014Z,-3.17
2022-12-18T10:22:58.010Z,-3.25
2022-12-18T10:23:58.005Z,-3.29
2022-12-18T10:24:57.979Z,-3.35
2022-12-18T10:25:58.017Z,-3.38
2022-12-18T10:26:57.969Z,-3.46
2022-12-18T10:27:57.954Z,-3.46
2022-12-18T10:29:02.142Z,-3.51
2022-12-18T10:29:57.929Z,-3.53
2022-12-18T10:30:57.978Z,-3.54
2022-12-18T10:31:57.904Z,-3.54
2022-12-18T10:32:57.900Z,-3.54
2022-12-18T10:33:57.913Z,-3.49
2022-12-18T10:35:00.570Z,-3.49
2022-12-18T10:35:57.873Z,-3.47
2022-12-18T10:36:57.865Z,-3.43
2022-12-18T10:37:57.847Z,-3.39
2022-12-18T10:38:57.846Z,-3.26
2022-12-18T10:39:57.826Z,-3.17
2022-12-18T10:40:57.827Z,-3.08
2022-12-18T10:41:57.835Z,-2.99
2022-12-18T10:42:57.779Z,-2.96
2022-12-18T10:43:57.781Z,-2.99
2022-12-18T10:44:57.800Z,-3.07
2022-12-18T10:45:58.757Z,-3.14
2022-12-18T10:46:57.757Z,-3.26
2022-12-18T10:47:57.740Z,-3.31
2022-12-18T10:48:57.723Z,-3.44
2022-12-18T10:49:57.733Z,-3.51
2022-12-18T10:51:13.706Z,-3.57
2022-12-18T10:51:57.703Z,-3.67
2022-12-18T10:52:57.673Z,-3.75
2022-12-18T10:53:57.669Z,-3.78
2022-12-18T10:54:57.692Z,-3.83
2022-12-18T10:55:57.641Z,-3.83
2022-12-18T10:56:57.637Z,-3.84
2022-12-18T10:57:57.626Z,-3.89
2022-12-18T10:58:57.607Z,-3.90
2022-12-18T10:59:57.606Z,-3.96
2022-12-18T11:00:57.644Z,-4.02
2022-12-18T11:01:57.754Z,-4.15
2022-12-18T11:02:57.781Z,-4.26
2022-12-18T11:04:01.794Z,-4.41
2022-12-18T11:04:57.547Z,-4.48
2022-12-18T11:05:57.551Z,-4.55
2022-12-18T11:06:57.546Z,-4.59
2022-12-18T11:07:57.513Z,-4.62
2022-12-18T11:08:57.548Z,-4.65
2022-12-18T11:09:57.506Z,-4.68
2022-12-18T11:10:57.496Z,-4.66
2022-12-18T11:11:57.483Z,-4.64
2022-12-18T11:12:57.487Z,-4.61
2022-12-18T11:13:57.494Z,-4.58
2022-12-18T11:14:57.445Z,-4.57
2022-12-18T11:15:57.484Z,-4.51
2022-12-18T11:17:24.361Z,-4.47
2022-12-18T11:17:57.418Z,-4.46
2022-12-18T11:18:57.394Z,-4.46
2022-12-18T11:19:57.451Z,-4.43
2022-12-18T11:20:58.844Z,-4.43
2022-12-18T11:21:57.367Z,-4.41
2022-12-18T11:22:57.367Z,-4.37
2022-12-18T11:23:57.337Z,-4.37
2022-12-18T11:25:30.223Z,-4.33
2022-12-18T11:25:57.338Z,-4.33
2022-12-18T11:26:59.839Z,-4.33
2022-12-18T11:27:57.312Z,-4.33
2022-12-18T11:28:57.287Z,-4.33
2022-12-18T11:29:57.281Z,-4.32
2022-12-18T11:30:57.331Z,-4.30
2022-12-18T11:31:57.259Z,-4.30
2022-12-18T11:32:57.274Z,-4.29
2022-12-18T11:34:19.604Z,-4.29
2022-12-18T11:34:59.122Z,-4.30
2022-12-18T11:35:57.213Z,-4.30
2022-12-18T11:36:57.236Z,-4.30
2022-12-18T11:37:57.224Z,-4.28
2022-12-18T11:38:57.219Z,-4.26
2022-12-18T11:39:57.164Z,-4.26
2022-12-18T11:40:57.168Z,-4.26
2022-12-18T11:41:57.232Z,-4.28
2022-12-18T11:42:57.162Z,-4.26
2022-12-18T11:43:57.140Z,-4.28
2022-12-18T11:44:57.125Z,-4.26
2022-12-18T11:45:57.120Z,-4.26
2022-12-18T11:46:57.122Z,-4.29
2022-12-18T11:47:57.106Z,-4.26
2022-12-18T11:48:57.085Z,-4.26
2022-12-18T11:49:57.050Z,-4.26
2022-12-18T11:50:57.062Z,-4.25
2022-12-18T11:51:57.053Z,-4.22
2022-12-18T11:53:01.538Z,-4.19
2022-12-18T11:53:57.021Z,-4.18
2022-12-18T11:54:57.024Z,-4.14
2022-12-18T11:55:57.000Z,-4.12
2022-12-18T11:56:56.994Z,-4.11
2022-12-18T11:57:57.003Z,-4.11
2022-12-18T11:58:56.993Z,-4.08
2022-12-18T11:59:56.955Z,-4.09
2022-12-18T12:00:56.957Z,-4.09
2022-12-18T12:01:57.050Z,-4.11
2022-12-18T12:02:57.005Z,-4.11
2022-12-18T12:03:57.030Z,-4.12
2022-12-18T12:04:56.978Z,-4.12
2022-12-18T12:05:56.901Z,-4.14
2022-12-18T12:07:02.800Z,-4.15
2022-12-18T12:07:56.879Z,-4.14
2022-12-18T12:08:56.891Z,-4.18
2022-12-18T12:09:56.864Z,-4.18
2022-12-18T12:10:56.839Z,-4.15
2022-12-18T12:11:56.828Z,-4.15
2022-12-18T12:12:56.827Z,-4.14
2022-12-18T12:13:56.836Z,-4.15
2022-12-18T12:14:56.806Z,-4.15
2022-12-18T12:15:56.905Z,-4.15
2022-12-18T12:16:56.786Z,-4.19
2022-12-18T12:17:56.813Z,-4.20
2022-12-18T12:18:56.746Z,-4.22
2022-12-18T12:19:56.737Z,-4.20
2022-12-18T12:20:56.737Z,-4.19
2022-12-18T12:21:56.733Z,-4.19
2022-12-18T12:22:56.779Z,-4.18
2022-12-18T12:23:56.721Z,-4.15
2022-12-18T12:24:56.731Z,-4.14
2022-12-18T12:25:56.671Z,-4.18
2022-12-18T12:26:56.823Z,-4.22
2022-12-18T12:27:56.655Z,-4.20
2022-12-18T12:28:56.650Z,-4.20
2022-12-18T12:29:56.624Z,-4.22
2022-12-18T12:30:56.651Z,-4.25
2022-12-18T12:31:56.765Z,-4.23
2022-12-18T12:32:56.614Z,-4.23
2022-12-18T12:33:56.596Z,-4.23
2022-12-18T12:35:00.954Z,-4.22
2022-12-18T12:35:56.586Z,-4.20
2022-12-18T12:36:56.585Z,-4.12
2022-12-18T12:37:56.589Z,-4.07
2022-12-18T12:38:56.605Z,-4.01
2022-12-18T12:39:56.537Z,-3.94
2022-12-18T12:41:02.529Z,-3.86
2022-12-18T12:41:56.539Z,-3.76
2022-12-18T12:42:56.554Z,-3.71
2022-12-18T12:43:56.488Z,-3.70
2022-12-18T12:44:57.170Z,-3.65
2022-12-18T12:45:56.491Z,-3.65
2022-12-18T12:46:56.480Z,-3.64
2022-12-18T12:47:56.439Z,-3.64
2022-12-18T12:48:56.444Z,-3.65
2022-12-18T12:49:57.611Z,-3.65
2022-12-18T12:50:56.415Z,-3.68
2022-12-18T12:51:56.433Z,-3.70
2022-12-18T12:52:56.441Z,-3.71